Time;durP1;ratioP1;P1;durP2;ratioP2;P2;SDS_P1;SDS_P2;PMS_P1;PMS_P2;Temp;Humidity;BMP_temperature;BMP_pressure;BME280_temperature;BME280_humidity;BME280_pressure;Samples;Min_cycle;Max_cycle;Signal;HPM_P1;HPM_P2
2022/06/13 00:01:12;;;;;;;10.95;3.17;;;;;;;16.70;nan;101683.47;5027424;28;20025;-46
2022/06/13 00:03:38;;;;;;;10.35;2.85;;;;;;;16.65;nan;101673.41;5023983;28;20108;-46
2022/06/13 00:06:04;;;;;;;9.50;2.75;;;;;;;16.68;nan;101674.78;5020404;28;20029;-46
2022/06/13 00:08:30;;;;;;;10.75;2.75;;;;;;;16.63;nan;101680.97;5025634;28;20033;-46
2022/06/13 00:10:55;;;;;;;8.85;3.53;;;;;;;16.61;nan;101672.31;5023417;28;20235;-46
2022/06/13 00:13:21;;;;;;;7.68;2.95;;;;;;;16.56;nan;101675.81;5023360;28;20029;-46
2022/06/13 00:15:46;;;;;;;9.48;3.50;;;;;;;16.56;nan;101672.31;5025180;28;20605;-47
2022/06/13 00:18:12;;;;;;;5.75;2.33;;;;;;;16.51;nan;101680.38;5025770;28;20164;-47
2022/06/13 00:20:37;;;;;;;10.90;2.88;;;;;;;16.49;nan;101674.44;5026047;28;20785;-46
2022/06/13 00:23:03;;;;;;;7.50;2.25;;;;;;;16.46;nan;101681.19;5021233;28;20021;-46
2022/06/13 00:25:29;;;;;;;7.18;2.63;;;;;;;16.46;nan;101669.56;5019335;28;20021;-46
2022/06/13 00:27:55;;;;;;;5.20;2.25;;;;;;;16.47;nan;101665.75;5017512;28;20403;-47
2022/06/13 00:30:21;;;;;;;9.00;2.88;;;;;;;16.41;nan;101659.53;5027752;28;20259;-46
2022/06/13 00:32:47;;;;;;;4.50;2.55;;;;;;;16.39;nan;101664.41;5019328;28;20449;-46
2022/06/13 00:35:12;;;;;;;7.68;3.13;;;;;;;16.35;nan;101663.31;5024594;28;20022;-46
2022/06/13 00:37:38;;;;;;;7.28;2.20;;;;;;;16.27;nan;101658.38;5017912;28;20033;-46
2022/06/13 00:40:05;;;;;;;4.72;1.92;;;;;;;16.27;nan;101661.09;5019261;28;20041;-46
2022/06/13 00:42:30;;;;;;;7.15;2.22;;;;;;;16.23;nan;101668.09;5016360;28;20025;-46
2022/06/13 00:45:26;;;;;;;7.70;2.70;;;;;;;16.21;nan;101667.56;5019930;28;20029;-46
2022/06/13 00:47:55;;;;;;;7.03;2.30;;;;;;;16.26;nan;101662.97;5018466;28;20038;-46
2022/06/13 00:50:25;;;;;;;6.72;2.30;;;;;;;16.27;nan;101667.31;5020053;28;20040;-46
2022/06/13 00:53:15;;;;;;;8.82;2.63;;;;;;;16.25;nan;101669.47;5019103;28;20025;-46
2022/06/13 00:55:46;;;;;;;7.78;2.58;;;;;;;16.27;nan;101663.78;5018562;28;20026;-47
2022/06/13 00:58:13;;;;;;;8.02;2.33;;;;;;;16.29;nan;101659.75;5026495;28;20025;-46
2022/06/13 01:00:40;;;;;;;6.80;1.90;;;;;;;16.30;nan;101655.97;5024619;28;20048;-46
2022/06/13 01:03:06;;;;;;;7.38;2.13;;;;;;;16.33;nan;101649.22;5024351;28;20036;-46
2022/06/13 01:05:36;;;;;;;6.28;2.10;;;;;;;16.36;nan;101654.13;5021272;28;20025;-46
2022/06/13 01:08:06;;;;;;;5.85;2.28;;;;;;;16.32;nan;101653.81;5026042;28;20029;-47
2022/06/13 01:13:18;;;;;;;5.20;1.85;;;;;;;16.28;nan;101658.13;5034868;22;20066;-42
2022/06/13 01:16:11;;;;;;;6.35;2.22;;;;;;;16.21;nan;101645.94;5019351;28;20034;-41
2022/06/13 01:18:57;;;;;;;5.75;1.80;;;;;;;16.20;nan;101642.41;5020989;28;20037;-42
2022/06/13 01:21:37;;;;;;;5.18;2.33;;;;;;;16.19;nan;101642.69;5023973;28;20028;-42
2022/06/13 01:24:27;;;;;;;7.10;2.33;;;;;;;16.14;nan;101648.84;5001539;28;20341;-42
2022/06/13 01:27:10;;;;;;;3.33;2.17;;;;;;;16.08;nan;101654.50;5001614;28;20116;-42
2022/06/13 01:29:57;;;;;;;5.78;1.77;;;;;;;16.11;nan;101652.09;5001929;28;20026;-43
2022/06/13 01:32:38;;;;;;;13.40;2.20;;;;;;;16.10;nan;101647.75;5002981;28;20566;-42
2022/06/13 01:35:30;;;;;;;5.40;2.05;;;;;;;16.07;nan;101644.78;4999763;28;20058;-42
2022/06/13 01:38:19;;;;;;;5.03;1.98;;;;;;;16.00;nan;101645.84;5000233;28;20026;-42
2022/06/13 01:41:13;;;;;;;8.93;2.53;;;;;;;15.90;nan;101650.34;4998536;28;20030;-42
2022/06/13 01:43:45;;;;;;;5.63;1.80;;;;;;;15.92;nan;101646.31;5000734;28;20053;-42
2022/06/13 01:46:16;;;;;;;5.22;2.05;;;;;;;15.88;nan;101647.91;4999468;28;20041;-42
2022/06/13 01:49:11;;;;;;;5.78;2.08;;;;;;;15.78;nan;101653.25;4998586;28;20432;-42
2022/06/13 01:51:42;;;;;;;7.72;1.90;;;;;;;15.74;nan;101645.94;4999800;28;20172;-41
2022/06/13 01:54:08;;;;;;;5.60;2.15;;;;;;;15.76;nan;101644.59;4993457;28;20034;-42
2022/06/13 01:56:49;;;;;;;5.15;2.03;;;;;;;15.76;nan;101644.59;4998614;28;20034;-42
2022/06/13 01:59:23;;;;;;;5.80;2.17;;;;;;;15.77;nan;101651.63;4998835;28;20030;-42
2022/06/13 02:02:18;;;;;;;7.88;2.30;;;;;;;15.74;nan;101652.16;4997850;28;20522;-42
2022/06/13 02:04:49;;;;;;;5.82;1.90;;;;;;;15.81;nan;101654.66;4998902;28;20041;-42
2022/06/13 02:07:26;;;;;;;6.35;2.50;;;;;;;15.83;nan;101650.59;5002325;28;20318;-42
2022/06/13 02:09:59;;;;;;;4.60;1.83;;;;;;;15.84;nan;101656.81;5000819;28;20024;-42
2022/06/13 02:12:28;;;;;;;4.55;1.92;;;;;;;15.86;nan;101650.06;5000194;28;20057;-42
2022/06/13 02:15:06;;;;;;;11.90;2.22;;;;;;;15.83;nan;101650.59;5004832;28;20030;-42
2022/06/13 02:17:40;;;;;;;3.88;1.77;;;;;;;15.87;nan;101651.69;5000538;28;20036;-42
2022/06/13 02:20:20;;;;;;;3.38;1.80;;;;;;;15.86;nan;101665.47;4999947;28;20026;-42
2022/06/13 02:22:53;;;;;;;5.18;2.13;;;;;;;15.80;nan;101661.94;5003630;28;20227;-42
2022/06/13 02:25:21;;;;;;;6.22;2.42;;;;;;;15.81;nan;101660.84;4992054;28;20153;-42
2022/06/13 02:27:57;;;;;;;10.63;2.47;;;;;;;15.81;nan;101663.56;4999145;28;20504;-42
2022/06/13 02:30:32;;;;;;;4.53;2.42;;;;;;;15.84;nan;101668.44;4995421;28;20053;-42
2022/06/13 02:33:20;;;;;;;4.53;2.00;;;;;;;15.84;nan;101668.44;5005638;28;20072;-42
2022/06/13 02:35:52;;;;;;;6.25;2.15;;;;;;;15.89;nan;101679.28;4996756;28;20461;-42
2022/06/13 02:38:33;;;;;;;6.30;2.28;;;;;;;15.87;nan;101673.31;4996781;28;20034;-42
2022/06/13 02:41:04;;;;;;;4.13;1.88;;;;;;;15.89;nan;101668.47;4997258;28;20040;-43
2022/06/13 02:43:50;;;;;;;6.40;2.08;;;;;;;15.83;nan;101666.81;4993288;28;20152;-42
2022/06/13 02:46:37;;;;;;;4.30;2.13;;;;;;;15.78;nan;101664.06;4997786;28;20025;-42
2022/06/13 02:49:24;;;;;;;4.93;2.15;;;;;;;15.77;nan;101662.44;4998065;28;20073;-42
2022/06/13 02:52:18;;;;;;;5.75;2.78;;;;;;;15.67;nan;101665.91;5000406;28;20120;-42
2022/06/13 02:54:53;;;;;;;4.18;2.30;;;;;;;15.71;nan;101680.50;4999800;28;20030;-42
2022/06/13 02:57:42;;;;;;;5.50;2.20;;;;;;;15.71;nan;101667.00;5003101;28;20037;-42
2022/06/13 03:00:28;;;;;;;5.32;2.25;;;;;;;15.71;nan;101661.59;4996157;28;20085;-42
2022/06/13 03:03:09;;;;;;;5.93;2.33;;;;;;;15.73;nan;101665.91;4980250;28;20049;-42
2022/06/13 03:06:06;;;;;;;4.93;1.85;;;;;;;15.68;nan;101667.53;5000649;28;20021;-41
2022/06/13 03:08:55;;;;;;;6.60;2.83;;;;;;;15.69;nan;101662.94;5002044;28;20121;-42
2022/06/13 03:11:24;;;;;;;6.75;2.20;;;;;;;15.73;nan;101671.31;5002538;28;20033;-42
2022/06/13 03:14:11;;;;;;;6.10;2.55;;;;;;;15.77;nan;101667.03;5003171;28;20030;-42
2022/06/13 03:16:39;;;;;;;6.00;2.00;;;;;;;15.76;nan;101674.31;5002750;28;20073;-42
2022/06/13 03:19:15;;;;;;;5.30;2.42;;;;;;;15.73;nan;101661.34;5001695;28;20034;-42
2022/06/13 03:21:59;;;;;;;7.00;2.78;;;;;;;15.70;nan;101651.84;5001453;28;20021;-42
2022/06/13 03:24:34;;;;;;;5.78;1.90;;;;;;;15.72;nan;101659.69;5002395;28;20033;-42
2022/06/13 03:27:38;;;;;;;4.50;1.95;;;;;;;15.76;nan;101666.22;5007224;28;20148;-42
2022/06/13 03:30:10;;;;;;;3.88;1.75;;;;;;;15.76;nan;101666.22;4995284;28;20099;-42
2022/06/13 03:32:41;;;;;;;6.95;2.15;;;;;;;15.78;nan;101668.66;5000102;28;20113;-42
2022/06/13 03:35:12;;;;;;;6.07;1.92;;;;;;;15.79;nan;101671.09;5003441;28;20023;-41
2022/06/13 03:37:48;;;;;;;8.25;2.08;;;;;;;15.81;nan;101670.84;5001930;28;20237;-42
2022/06/13 03:40:22;;;;;;;6.75;2.15;;;;;;;15.83;nan;101674.09;5002573;28;20033;-41
2022/06/13 03:42:54;;;;;;;4.30;1.90;;;;;;;15.80;nan;101678.16;4997394;28;20373;-42
2022/06/13 03:45:26;;;;;;;4.97;1.77;;;;;;;15.77;nan;101684.03;4999956;28;20109;-41
2022/06/13 03:48:03;;;;;;;8.38;2.50;;;;;;;15.73;nan;101682.13;5002682;28;20034;-42
2022/06/13 03:50:43;;;;;;;6.82;2.10;;;;;;;15.71;nan;101690.50;5002058;28;20022;-42
2022/06/13 03:53:18;;;;;;;6.28;2.08;;;;;;;15.73;nan;101703.75;4998393;28;20108;-43
2022/06/13 03:55:53;;;;;;;4.53;1.90;;;;;;;15.70;nan;101708.59;5003673;28;20071;-41
2022/06/13 03:58:27;;;;;;;9.30;2.40;;;;;;;15.67;nan;101703.72;5000826;28;20391;-42
2022/06/13 04:01:02;;;;;;;8.93;2.40;;;;;;;15.64;nan;101703.44;5003340;28;20088;-42
2022/06/13 04:03:28;;;;;;;9.88;2.47;;;;;;;15.65;nan;101697.75;4998353;28;20033;-42
2022/06/13 04:06:02;;;;;;;4.13;1.92;;;;;;;15.67;nan;101709.13;5004083;28;20026;-41
2022/06/13 04:08:31;;;;;;;8.75;2.50;;;;;;;15.70;nan;101707.78;5004643;28;20038;-42
2022/06/13 04:11:15;;;;;;;6.15;2.40;;;;;;;15.69;nan;101698.88;5004055;28;20260;-42
2022/06/13 04:14:10;;;;;;;9.53;2.53;;;;;;;15.71;nan;101687.78;5000216;28;20037;-41
2022/06/13 04:17:03;;;;;;;8.00;2.27;;;;;;;15.69;nan;101681.84;5000122;28;21009;-42
2022/06/13 04:19:43;;;;;;;5.80;2.00;;;;;;;15.76;nan;101685.13;4999037;28;20480;-41
2022/06/13 04:22:41;;;;;;;8.23;2.47;;;;;;;15.84;nan;101689.25;5000370;28;20031;-41
2022/06/13 04:25:19;;;;;;;4.45;2.15;;;;;;;15.89;nan;101681.97;5003511;28;20113;-42
2022/06/13 04:27:59;;;;;;;5.55;2.15;;;;;;;15.91;nan;101674.41;5000892;28;20110;-42
2022/06/13 04:30:28;;;;;;;6.63;2.40;;;;;;;15.99;nan;101682.06;4996894;28;20085;-41
2022/06/13 04:33:36;;;;;;;6.43;2.22;;;;;;;16.00;nan;101680.16;4999527;28;20029;-42
2022/06/13 04:36:04;;;;;;;9.15;2.40;;;;;;;16.05;nan;101685.59;4958473;28;20466;-42
2022/06/13 04:38:31;;;;;;;5.07;2.67;;;;;;;16.11;nan;101694.53;4959009;28;20030;-43
2022/06/13 04:41:00;;;;;;;4.50;2.10;;;;;;;16.19;nan;101694.06;4979247;28;20042;-41
2022/06/13 04:43:28;;;;;;;6.47;2.10;;;;;;;16.25;nan;101701.09;4996825;28;20078;-42
2022/06/13 04:45:59;;;;;;;5.63;2.50;;;;;;;16.27;nan;101691.66;4997486;28;20387;-41
2022/06/13 04:48:25;;;;;;;7.90;2.40;;;;;;;16.34;nan;101696.84;4999767;28;20092;-42
2022/06/13 04:50:57;;;;;;;7.45;2.55;;;;;;;16.32;nan;101690.84;5000257;28;20103;-42
2022/06/13 04:53:29;;;;;;;9.65;2.50;;;;;;;16.35;nan;101695.75;4999930;28;20030;-42
2022/06/13 04:55:55;;;;;;;6.70;2.00;;;;;;;16.39;nan;101701.44;4998785;28;20111;-42
2022/06/13 04:58:30;;;;;;;6.97;2.50;;;;;;;16.36;nan;101697.38;5000294;28;20041;-42
2022/06/13 05:01:18;;;;;;;6.43;2.38;;;;;;;16.40;nan;101703.88;4998317;28;20064;-42
2022/06/13 05:03:46;;;;;;;10.32;2.85;;;;;;;16.42;nan;101699.03;4993989;28;20045;-42
2022/06/13 05:06:51;;;;;;;6.25;2.72;;;;;;;16.39;nan;101702.25;4991135;28;20036;-43
2022/06/13 05:09:20;;;;;;;7.63;2.25;;;;;;;16.47;nan;101695.53;4991561;28;20123;-42
2022/06/13 05:12:04;;;;;;;5.00;2.90;;;;;;;16.53;nan;101694.47;4998954;28;20034;-42
2022/06/13 05:14:41;;;;;;;6.78;2.72;;;;;;;16.52;nan;101690.97;4998579;28;20088;-41
2022/06/13 05:17:12;;;;;;;9.20;2.40;;;;;;;16.53;nan;101702.59;5000436;28;20427;-42
2022/06/13 05:19:46;;;;;;;8.27;3.03;;;;;;;16.63;nan;101708.84;4999561;28;20021;-42
2022/06/13 05:22:30;;;;;;;6.93;2.40;;;;;;;16.70;nan;101697.81;5000622;28;20025;-42
2022/06/13 05:25:01;;;;;;;8.38;3.03;;;;;;;16.81;nan;101695.94;4998774;28;20386;-43
2022/06/13 05:27:27;;;;;;;6.15;2.75;;;;;;;16.86;nan;101698.66;4997936;28;20500;-42
2022/06/13 05:29:52;;;;;;;6.63;2.70;;;;;;;16.86;nan;101702.19;4996502;28;20614;-42
2022/06/13 05:32:21;;;;;;;7.70;2.55;;;;;;;16.90;nan;101697.88;4997993;28;20033;-42
2022/06/13 05:34:48;;;;;;;5.72;2.67;;;;;;;16.94;nan;101692.75;5003335;28;20026;-42
2022/06/13 05:37:16;;;;;;;7.13;2.65;;;;;;;16.97;nan;101692.19;5000641;28;20084;-41
2022/06/13 05:39:42;;;;;;;13.82;3.45;;;;;;;17.02;nan;101694.09;4999427;28;20064;-42
2022/06/13 05:42:10;;;;;;;9.55;2.65;;;;;;;17.05;nan;101698.97;5001256;28;20022;-41
2022/06/13 05:44:36;;;;;;;7.30;3.03;;;;;;;16.97;nan;101703.03;4997467;28;20045;-42
2022/06/13 05:47:02;;;;;;;8.10;2.88;;;;;;;16.94;nan;101717.09;4999664;28;20113;-41
2022/06/13 05:49:27;;;;;;;7.40;2.92;;;;;;;16.99;nan;101713.59;5002399;28;20036;-41
2022/06/13 05:51:53;;;;;;;7.88;3.47;;;;;;;16.95;nan;101726.03;5004390;28;20050;-42
2022/06/13 05:54:18;;;;;;;11.57;3.13;;;;;;;16.83;nan;101726.25;4997408;28;20038;-41
2022/06/13 05:56:44;;;;;;;10.00;3.33;;;;;;;16.78;nan;101732.47;4993643;28;20033;-41
2022/06/13 05:59:09;;;;;;;7.50;3.03;;;;;;;16.77;nan;101735.44;4995322;28;20030;-41
2022/06/13 06:01:36;;;;;;;10.93;3.00;;;;;;;16.78;nan;101740.59;4996487;28;20025;-42
2022/06/13 06:04:04;;;;;;;9.82;2.78;;;;;;;16.76;nan;101741.94;4999072;28;20030;-41
2022/06/13 06:06:32;;;;;;;10.98;2.78;;;;;;;16.73;nan;101740.59;5005756;28;20022;-42
2022/06/13 06:08:59;;;;;;;8.20;2.58;;;;;;;16.71;nan;101737.34;5000509;28;20034;-42
2022/06/13 06:11:26;;;;;;;8.85;2.67;;;;;;;16.67;nan;101732.69;5000136;28;20508;-42
2022/06/13 06:13:52;;;;;;;10.80;3.38;;;;;;;16.59;nan;101740.22;4999924;28;20042;-41
2022/06/13 06:16:21;;;;;;;7.38;2.80;;;;;;;16.68;nan;101734.31;5003138;28;20562;-41
2022/06/13 06:18:47;;;;;;;6.07;2.65;;;;;;;16.76;nan;101737.34;4999198;28;20062;-43
2022/06/13 06:21:13;;;;;;;9.05;2.50;;;;;;;16.76;nan;101739.25;5000422;28;20443;-42
2022/06/13 06:23:39;;;;;;;7.40;2.83;;;;;;;16.82;nan;101743.59;4999077;28;20025;-42
2022/06/13 06:26:06;;;;;;;6.80;2.47;;;;;;;16.94;nan;101740.66;5006644;28;20040;-42
2022/06/13 06:28:32;;;;;;;7.30;2.72;;;;;;;17.03;nan;101741.75;4999339;28;20061;-42
2022/06/13 06:30:58;;;;;;;8.38;2.42;;;;;;;17.03;nan;101737.16;5000922;28;20040;-41
2022/06/13 06:33:25;;;;;;;7.30;2.25;;;;;;;17.03;nan;101739.03;5001308;28;20040;-41
2022/06/13 06:35:54;;;;;;;7.20;2.47;;;;;;;17.08;nan;101741.78;4998479;28;20041;-41
2022/06/13 06:38:21;;;;;;;8.77;2.72;;;;;;;17.11;nan;101736.63;5000293;28;20040;-42
2022/06/13 06:40:47;;;;;;;5.82;2.88;;;;;;;17.27;nan;101750.22;4997528;28;20680;-43
2022/06/13 06:43:13;;;;;;;11.93;2.70;;;;;;;17.39;nan;101745.34;4998950;28;20492;-42
2022/06/13 06:45:38;;;;;;;5.45;2.38;;;;;;;17.55;nan;101754.28;4999902;28;20094;-42
2022/06/13 06:48:04;;;;;;;10.90;2.20;;;;;;;17.55;nan;101746.97;4999852;28;20060;-41
2022/06/13 06:50:33;;;;;;;6.15;2.17;;;;;;;17.50;nan;101747.78;5000360;28;20048;-41
2022/06/13 06:52:59;;;;;;;8.05;2.17;;;;;;;17.35;nan;101752.38;4997987;28;20046;-42
2022/06/13 06:59:53;;;;;;;8.80;2.55;;;;;;;17.58;nan;101751.03;4998868;28;20473;-42
2022/06/13 07:01:16;;;;;;;6.85;2.38;;;;;;;17.69;nan;101741.88;4995476;28;20029;-42
2022/06/13 07:03:43;;;;;;;3.75;2.10;;;;;;;17.69;nan;101747.28;4996490;28;20558;-41
2022/06/13 07:06:09;;;;;;;4.82;1.58;;;;;;;17.81;nan;101743.22;4998928;28;20033;-42
2022/06/13 07:08:36;;;;;;;6.35;1.90;;;;;;;17.83;nan;101736.72;5000937;28;20022;-42
2022/06/13 07:13:51;;;;;;;5.00;1.73;;;;;;;17.69;nan;101742.69;5023760;23;20048;-46
2022/06/13 07:16:17;;;;;;;5.22;1.73;;;;;;;17.65;nan;101743.47;5013289;28;20041;-45
2022/06/13 07:18:45;;;;;;;8.40;2.45;;;;;;;17.57;nan;101750.22;5016994;28;20029;-46
2022/06/13 07:21:11;;;;;;;5.32;1.92;;;;;;;17.60;nan;101744.28;5020421;28;20620;-46
2022/06/13 07:23:37;;;;;;;8.50;2.33;;;;;;;17.59;nan;101748.06;5008460;28;20542;-46
2022/06/13 07:26:03;;;;;;;7.15;2.00;;;;;;;17.57;nan;101728.53;4996590;28;20108;-46
2022/06/13 07:28:28;;;;;;;5.22;1.92;;;;;;;17.63;nan;101722.06;4998580;28;20108;-46
2022/06/13 07:30:54;;;;;;;5.28;2.53;;;;;;;17.63;nan;101722.06;5000710;28;20022;-46
2022/06/13 07:33:20;;;;;;;5.70;1.75;;;;;;;17.68;nan;101713.13;4998103;28;20037;-46
2022/06/13 07:35:45;;;;;;;6.65;2.13;;;;;;;17.72;nan;101711.50;5004253;28;20421;-46
2022/06/13 07:38:17;;;;;;;5.70;1.77;;;;;;;17.72;nan;101708.78;4996911;28;20033;-46
2022/06/13 07:40:48;;;;;;;7.68;2.25;;;;;;;17.71;nan;101707.97;5002350;28;20088;-46
2022/06/13 07:43:26;;;;;;;6.95;2.30;;;;;;;17.85;nan;101712.84;5006000;28;20112;-46
2022/06/13 07:45:52;;;;;;;6.75;2.08;;;;;;;18.11;nan;101719.84;5004626;28;20025;-46
2022/06/13 07:48:18;;;;;;;5.07;1.50;;;;;;;18.26;nan;101729.84;5011131;28;20033;-46
2022/06/13 07:50:44;;;;;;;2.75;1.35;;;;;;;18.32;nan;101734.19;5007667;28;20025;-46
2022/06/13 07:53:09;;;;;;;4.88;1.50;;;;;;;18.23;nan;101725.78;5008561;28;20022;-47
2022/06/13 07:55:36;;;;;;;3.92;1.67;;;;;;;18.14;nan;101729.34;5007174;28;20018;-46
2022/06/13 07:58:02;;;;;;;4.07;1.88;;;;;;;18.01;nan;101725.31;5013760;28;20393;-45
2022/06/13 08:00:34;;;;;;;6.32;1.70;;;;;;;18.00;nan;101720.97;5006041;28;20112;-45
2022/06/13 08:03:01;;;;;;;5.18;1.63;;;;;;;18.11;nan;101722.56;5011934;28;20545;-46
2022/06/13 08:05:28;;;;;;;3.95;1.55;;;;;;;18.33;nan;101724.97;5011609;28;20028;-45
2022/06/13 08:07:54;;;;;;;5.35;1.60;;;;;;;18.56;nan;101728.94;5002969;28;20021;-46
2022/06/13 08:10:19;;;;;;;4.95;1.77;;;;;;;18.63;nan;101735.72;5008527;28;20140;-45
2022/06/13 08:12:45;;;;;;;5.70;1.70;;;;;;;18.66;nan;101734.34;5002977;28;20084;-46
2022/06/13 08:15:13;;;;;;;7.05;1.92;;;;;;;18.64;nan;101736.53;5004800;28;20570;-46
2022/06/13 08:17:40;;;;;;;7.18;2.05;;;;;;;18.64;nan;101728.38;5008761;28;20087;-46
2022/06/13 08:20:10;;;;;;;6.75;1.77;;;;;;;18.65;nan;101730.81;5006391;28;20034;-46
2022/06/13 08:22:44;;;;;;;5.78;1.63;;;;;;;18.75;nan;101738.13;4999901;28;20033;-47
2022/06/13 08:25:20;;;;;;;3.95;1.73;;;;;;;18.72;nan;101733.25;5001074;28;20103;-47
2022/06/13 08:27:46;;;;;;;7.35;2.10;;;;;;;18.71;nan;101729.72;5009559;28;20026;-46
2022/06/13 08:30:12;;;;;;;4.57;1.60;;;;;;;18.70;nan;101735.44;5010790;28;20041;-47
2022/06/13 08:32:38;;;;;;;6.18;2.00;;;;;;;18.69;nan;101740.06;5006322;28;20029;-46
2022/06/13 08:35:04;;;;;;;4.47;1.63;;;;;;;18.69;nan;101741.97;5009742;28;20495;-45
2022/06/13 08:37:29;;;;;;;7.28;1.98;;;;;;;18.68;nan;101738.44;5002469;28;20030;-46
2022/06/13 08:39:55;;;;;;;5.00;1.30;;;;;;;18.72;nan;101733.25;5005615;28;20045;-45
2022/06/13 08:42:30;;;;;;;4.10;1.50;;;;;;;18.79;nan;101739.19;5009427;28;20037;-46
2022/06/13 08:45:07;;;;;;;4.90;1.45;;;;;;;18.82;nan;101737.81;5005391;28;20032;-45
2022/06/13 08:47:38;;;;;;;5.38;1.30;;;;;;;18.85;nan;101734.53;5009036;28;20198;-45
2022/06/13 08:50:16;;;;;;;6.45;1.58;;;;;;;18.87;nan;101744.03;5008627;28;20044;-46
2022/06/13 08:52:49;;;;;;;3.40;1.60;;;;;;;18.81;nan;101745.13;5003607;28;20038;-45
2022/06/13 08:55:39;;;;;;;5.15;1.35;;;;;;;18.69;nan;101739.25;5000986;28;20468;-47
2022/06/13 08:58:24;;;;;;;7.43;1.33;;;;;;;18.53;nan;101734.94;5010167;28;20022;-45
2022/06/13 09:00:54;;;;;;;3.30;1.25;;;;;;;18.61;nan;101739.78;5008198;28;20018;-46
2022/06/13 09:03:30;;;;;;;6.40;1.67;;;;;;;18.57;nan;101741.44;5008005;28;20042;-45
2022/06/13 09:06:05;;;;;;;7.15;2.03;;;;;;;18.59;nan;101729.19;4998335;28;20511;-45
2022/06/13 09:08:42;;;;;;;10.02;1.73;;;;;;;18.71;nan;101732.44;4996961;28;20120;-45
2022/06/13 09:11:23;;;;;;;4.18;1.60;;;;;;;18.85;nan;101732.66;5007735;28;20026;-46
2022/06/13 09:14:02;;;;;;;7.38;2.00;;;;;;;18.93;nan;101740.19;5001850;28;20033;-46
2022/06/13 09:16:34;;;;;;;5.63;1.30;;;;;;;18.97;nan;101735.81;5005091;28;20034;-46
2022/06/13 09:19:25;;;;;;;4.60;1.60;;;;;;;18.98;nan;101736.63;5004287;28;20500;-45
2022/06/13 09:22:09;;;;;;;4.38;1.42;;;;;;;18.93;nan;101732.06;5006539;28;20366;-46
2022/06/13 09:24:52;;;;;;;6.88;1.33;;;;;;;18.93;nan;101734.78;5003688;28;20411;-46
2022/06/13 09:27:24;;;;;;;7.53;1.80;;;;;;;19.05;nan;101734.44;5000643;28;20032;-45
2022/06/13 09:29:59;;;;;;;4.88;1.58;;;;;;;19.18;nan;101730.25;5002890;28;20559;-46
2022/06/13 09:32:34;;;;;;;4.72;1.95;;;;;;;19.45;nan;101746.13;5005480;28;20050;-46
2022/06/13 09:35:11;;;;;;;4.35;1.60;;;;;;;19.65;nan;101737.84;4995132;28;20403;-45
2022/06/13 09:37:48;;;;;;;7.43;1.83;;;;;;;19.55;nan;101729.75;5005226;28;20029;-45
2022/06/13 09:40:19;;;;;;;6.60;1.60;;;;;;;19.63;nan;101725.63;5001660;28;20104;-45
2022/06/13 09:43:13;;;;;;;4.38;1.35;;;;;;;19.66;nan;101731.31;5002351;28;20104;-46
2022/06/13 09:45:53;;;;;;;5.45;1.90;;;;;;;19.53;nan;101724.56;4996285;28;20033;-45
2022/06/13 09:48:25;;;;;;;5.30;1.70;;;;;;;19.38;nan;101724.69;5004067;28;20060;-46
2022/06/13 09:51:10;;;;;;;4.70;1.58;;;;;;;19.33;nan;101727.44;5002296;28;20615;-46
2022/06/13 09:54:10;;;;;;;4.93;1.60;;;;;;;19.30;nan;101715.25;4994483;28;20177;-44
2022/06/13 09:56:58;;;;;;;4.60;1.70;;;;;;;19.24;nan;101719.09;5009648;28;20029;-44
2022/06/13 10:00:02;;;;;;;5.18;1.40;;;;;;;19.36;nan;101716.00;5004386;28;20026;-45
2022/06/13 10:02:37;;;;;;;8.70;2.08;;;;;;;19.52;nan;101728.38;4998463;28;20073;-45
2022/06/13 10:05:03;;;;;;;4.20;1.42;;;;;;;19.50;nan;101716.19;5003095;28;20018;-45
2022/06/13 10:07:51;;;;;;;4.13;1.35;;;;;;;19.24;nan;101718.28;5003995;28;20036;-47
2022/06/13 10:10:29;;;;;;;6.10;1.23;;;;;;;19.15;nan;101717.25;5001462;28;20073;-45
2022/06/13 10:13:03;;;;;;;6.82;2.17;;;;;;;19.16;nan;101716.16;4995879;28;20053;-45
2022/06/13 10:15:53;;;;;;;4.20;1.10;;;;;;;19.38;nan;101724.69;5000883;28;20072;-45
2022/06/13 10:18:35;;;;;;;4.30;1.27;;;;;;;19.52;nan;101719.41;4999529;28;20129;-45
2022/06/13 10:21:13;;;;;;;6.70;1.70;;;;;;;19.69;nan;101700.00;4996572;28;20057;-46
2022/06/13 10:23:58;;;;;;;6.35;1.08;;;;;;;19.88;nan;101711.78;4999774;28;20018;-45
2022/06/13 10:26:39;;;;;;;3.95;1.55;;;;;;;19.83;nan;101709.13;5000288;28;20083;-48
2022/06/13 10:29:34;;;;;;;4.55;1.45;;;;;;;19.81;nan;101708.59;5001482;28;20129;-45
2022/06/13 10:32:15;;;;;;;5.22;1.30;;;;;;;19.84;nan;101717.00;4988621;28;20125;-45
2022/06/13 10:35:02;;;;;;;4.70;1.30;;;;;;;19.90;nan;101704.97;4999875;28;20084;-45
2022/06/13 10:37:54;;;;;;;7.88;1.55;;;;;;;19.94;nan;101712.56;4992326;28;20101;-45
2022/06/13 10:40:20;;;;;;;4.25;1.58;;;;;;;20.00;nan;101701.34;5000414;28;20407;-45
2022/06/13 10:42:46;;;;;;;3.33;1.52;;;;;;;20.14;nan;101709.63;5004459;28;20025;-47
2022/06/13 10:45:14;;;;;;;5.25;1.30;;;;;;;20.30;nan;101697.47;5000137;28;20183;-45
2022/06/13 10:47:46;;;;;;;5.60;1.35;;;;;;;20.34;nan;101703.16;5000155;28;20026;-45
2022/06/13 10:50:21;;;;;;;2.75;1.13;;;;;;;20.32;nan;101705.34;4992757;28;20045;-45
2022/06/13 10:52:51;;;;;;;4.70;1.50;;;;;;;20.23;nan;101716.03;4988724;28;20040;-45
2022/06/13 10:55:22;;;;;;;7.57;1.70;;;;;;;20.05;nan;101714.06;4989614;28;20034;-46
2022/06/13 10:57:56;;;;;;;6.15;1.52;;;;;;;19.87;nan;101710.16;4995489;28;20032;-45
2022/06/13 11:00:26;;;;;;;6.45;1.48;;;;;;;19.67;nan;101710.38;4997325;28;20053;-45
2022/06/13 11:03:08;;;;;;;6.90;1.63;;;;;;;19.48;nan;101724.63;5002162;28;20026;-45
2022/06/13 11:05:49;;;;;;;4.40;1.65;;;;;;;19.13;nan;101746.59;4992534;28;20030;-45
2022/06/13 11:08:15;;;;;;;4.65;1.50;;;;;;;18.81;nan;101750.56;5002835;28;20037;-45
2022/06/13 11:10:50;;;;;;;3.42;1.45;;;;;;;18.67;nan;101752.25;4997434;28;20053;-45
2022/06/13 11:13:25;;;;;;;5.38;1.35;;;;;;;18.77;nan;101757.66;4995936;28;20041;-45
2022/06/13 11:24:51;;;;;;;7.80;1.77;;;;;;;19.13;nan;101754.75;5002913;28;20045;-45
2022/06/13 11:27:39;;;;;;;5.75;1.30;;;;;;;19.05;nan;101753.44;5005662;28;20369;-45
2022/06/13 11:30:26;;;;;;;3.72;1.10;;;;;;;19.02;nan;101759.41;5004457;28;20059;-45
2022/06/13 11:33:00;;;;;;;4.60;1.40;;;;;;;19.26;nan;101754.13;5002918;28;20411;-45
2022/06/13 11:35:48;;;;;;;3.50;1.38;;;;;;;19.40;nan;101748.88;5000427;28;20045;-45
2022/06/13 11:38:15;;;;;;;5.22;1.50;;;;;;;19.70;nan;101747.84;5002561;28;20209;-45
2022/06/13 11:40:43;;;;;;;3.72;1.50;;;;;;;19.97;nan;101747.34;5004058;28;20085;-45
2022/06/13 11:43:21;;;;;;;4.22;1.70;;;;;;;20.16;nan;101746.34;5003591;28;20481;-45
2022/06/13 11:46:01;;;;;;;3.83;1.20;;;;;;;20.42;nan;101746.88;5000050;28;20096;-45
2022/06/13 11:48:28;;;;;;;4.05;1.65;;;;;;;20.43;nan;101732.16;5009818;28;20387;-45
2022/06/13 11:51:01;;;;;;;4.15;1.80;;;;;;;20.16;nan;101724.56;4998300;28;20109;-45
2022/06/13 11:53:37;;;;;;;2.85;1.52;;;;;;;20.02;nan;101736.41;5005293;28;20048;-45
2022/06/13 11:56:08;;;;;;;7.25;2.00;;;;;;;20.10;nan;101735.78;4998067;28;20029;-45
2022/06/13 11:58:38;;;;;;;4.97;1.90;;;;;;;20.27;nan;101740.75;5005316;28;20089;-45
2022/06/13 12:01:22;;;;;;;6.05;1.70;;;;;;;20.25;nan;101746.50;5003774;28;20030;-45
2022/06/13 12:03:58;;;;;;;3.70;1.40;;;;;;;20.21;nan;101742.75;4995117;28;20049;-45
2022/06/13 12:06:25;;;;;;;3.53;1.35;;;;;;;20.46;nan;101744.38;4995681;28;20523;-44
2022/06/13 12:09:02;;;;;;;5.00;1.48;;;;;;;20.75;nan;101736.94;4998152;28;20404;-45
2022/06/13 12:11:28;;;;;;;4.95;2.05;;;;;;;20.89;nan;101736.25;5005477;28;20033;-45
2022/06/13 12:13:58;;;;;;;3.45;1.48;;;;;;;20.98;nan;101737.19;5001884;28;20694;-45
2022/06/13 12:16:30;;;;;;;3.83;1.38;;;;;;;20.74;nan;101734.53;5009853;28;20065;-46
2022/06/13 12:19:14;;;;;;;4.63;1.45;;;;;;;20.45;nan;101729.16;4997859;28;20527;-47
2022/06/13 12:21:45;;;;;;;6.25;1.70;;;;;;;20.37;nan;101732.50;4999200;28;20715;-46
2022/06/13 12:24:52;;;;;;;9.80;2.13;;;;;;;20.03;nan;101735.31;4997084;28;20045;-44
2022/06/13 12:27:44;;;;;;;5.68;1.80;;;;;;;19.80;nan;101736.91;4970134;28;20500;-45
2022/06/13 12:30:28;;;;;;;4.13;1.52;;;;;;;19.68;nan;101745.41;4999365;28;20029;-45
2022/06/13 12:33:18;;;;;;;2.55;1.30;;;;;;;20.18;nan;101737.88;5006789;28;20586;-45